createdAt,value
2022-11-24T00:02:12.236Z,99290.03
2022-11-24T00:05:15.276Z,99293.22
2022-11-24T00:08:18.576Z,99297.81
2022-11-24T00:11:24.501Z,99307.72
2022-11-24T00:14:27.450Z,99312.19
2022-11-24T00:17:30.416Z,99315.87
2022-11-24T00:20:33.055Z,99324.47
2022-11-24T00:23:36.334Z,99323.31
2022-11-24T00:26:39.054Z,99332.63
2022-11-24T00:29:41.989Z,99331.41
2022-11-24T00:32:44.650Z,99326.62
2022-11-24T00:35:55.116Z,99335.69
2022-11-24T00:39:05.967Z,99330.03
2022-11-24T00:42:08.845Z,99343.72
2022-11-24T00:45:14.065Z,99334.44
2022-11-24T00:48:17.410Z,99341.66
2022-11-24T00:51:22.317Z,99349.56
2022-11-24T00:54:25.342Z,99355.69
2022-11-24T00:57:29.245Z,99364.75
2022-11-24T01:00:32.153Z,99366.38
2022-11-24T01:03:36.826Z,99364.66
2022-11-24T01:06:39.785Z,99367.41
2022-11-24T01:09:43.433Z,99369.00
2022-11-24T01:12:46.574Z,99366.97
2022-11-24T01:15:49.242Z,99380.38
2022-11-24T01:18:53.652Z,99373.31
2022-11-24T01:21:56.313Z,99377.91
2022-11-24T01:24:59.368Z,99385.25
2022-11-24T01:28:02.462Z,99380.94
2022-11-24T01:31:07.580Z,99386.69
2022-11-24T01:34:10.228Z,99393.84
2022-11-24T01:37:13.218Z,99390.31
2022-11-24T01:40:16.147Z,99403.09
2022-11-24T01:43:21.549Z,99406.72
2022-11-24T01:46:42.166Z,99403.97
2022-11-24T01:49:59.140Z,99396.97
2022-11-24T01:53:02.314Z,99405.47
2022-11-24T01:56:06.787Z,99408.84
2022-11-24T01:59:14.505Z,99417.50
2022-11-24T02:02:18.083Z,99421.69
2022-11-24T02:05:28.604Z,99418.84
2022-11-24T02:08:40.697Z,99421.94
2022-11-24T02:11:44.790Z,99420.53
2022-11-24T02:14:47.785Z,99426.09
2022-11-24T02:17:50.629Z,99423.28
2022-11-24T02:20:53.575Z,99428.59
2022-11-24T02:24:12.388Z,99425.66
2022-11-24T02:27:15.291Z,99424.06
2022-11-24T02:30:18.222Z,99432.41
2022-11-24T02:33:22.497Z,99417.69
2022-11-24T02:36:25.285Z,99433.25
2022-11-24T02:39:28.290Z,99433.88
2022-11-24T02:42:36.164Z,99433.88
2022-11-24T02:45:39.485Z,99429.78
2022-11-24T02:48:42.131Z,99435.00
2022-11-24T02:51:45.122Z,99439.47
2022-11-24T02:54:49.814Z,99439.56
2022-11-24T02:57:52.765Z,99435.66
2022-11-24T03:00:57.449Z,99432.31
2022-11-24T03:04:00.671Z,99433.59
2022-11-24T03:07:03.419Z,99433.16
2022-11-24T03:10:07.928Z,99434.16
2022-11-24T03:13:10.814Z,99430.25
2022-11-24T03:16:13.747Z,99427.78
2022-11-24T03:19:16.429Z,99435.16
2022-11-24T03:22:20.950Z,99435.25
2022-11-24T03:25:23.863Z,99426.12
2022-11-24T03:28:28.179Z,99439.56
2022-11-24T03:31:30.857Z,99432.06
2022-11-24T03:34:34.295Z,99434.47
2022-11-24T03:37:37.521Z,99429.56
2022-11-24T03:40:40.512Z,99427.47
2022-11-24T03:43:44.295Z,99440.47
2022-11-24T03:46:47.492Z,99435.69
2022-11-24T03:49:50.128Z,99437.56
2022-11-24T03:52:53.222Z,99445.34
2022-11-24T03:55:56.355Z,99442.63
2022-11-24T03:58:59.318Z,99443.75
2022-11-24T04:02:02.053Z,99457.69
2022-11-24T04:05:05.947Z,99456.34
2022-11-24T04:08:08.956Z,99455.09
2022-11-24T04:11:31.752Z,99453.06
2022-11-24T04:14:34.927Z,99459.97
2022-11-24T04:17:38.296Z,99463.94
2022-11-24T04:20:42.195Z,99476.34
2022-11-24T04:23:45.122Z,99477.75
2022-11-24T04:26:47.870Z,99483.34
2022-11-24T04:29:51.326Z,99491.84
2022-11-24T04:32:55.346Z,99488.41
2022-11-24T04:35:58.221Z,99494.44
2022-11-24T04:39:23.768Z,99502.31
2022-11-24T04:42:23.656Z,99515.19
2022-11-24T04:45:26.516Z,99519.88
2022-11-24T04:48:29.902Z,99514.13
2022-11-24T04:51:32.541Z,99524.78
2022-11-24T04:54:35.796Z,99528.47
2022-11-24T04:57:39.300Z,99528.44
2022-11-24T05:00:42.236Z,99536.19
2022-11-24T05:03:44.887Z,99540.88
2022-11-24T05:06:48.074Z,99540.59
2022-11-24T05:10:09.069Z,99543.44
2022-11-24T05:13:13.239Z,99544.94
2022-11-24T05:16:16.020Z,99542.38
2022-11-24T05:19:19.020Z,99544.50
2022-11-24T05:22:22.881Z,99551.50
2022-11-24T05:25:25.725Z,99549.91
2022-11-24T05:28:28.782Z,99550.59
2022-11-24T05:31:31.715Z,99558.56
2022-11-24T05:34:36.178Z,99562.47
2022-11-24T05:37:39.302Z,99565.13
2022-11-24T05:40:44.173Z,99567.88
2022-11-24T05:43:47.046Z,99576.88
2022-11-24T05:46:52.841Z,99583.09
2022-11-24T05:49:55.773Z,99598.75
2022-11-24T05:53:03.134Z,99602.09
2022-11-24T05:56:06.390Z,99599.09
2022-11-24T05:59:10.135Z,99609.31
2022-11-24T06:02:20.915Z,99615.03
2022-11-24T06:05:23.911Z,99627.87
2022-11-24T06:08:30.905Z,99635.84
2022-11-24T06:11:34.294Z,99624.88
2022-11-24T06:14:37.165Z,99635.56
2022-11-24T06:17:40.433Z,99627.66
2022-11-24T06:20:53.136Z,99632.00
2022-11-24T06:24:06.344Z,99643.66
2022-11-24T06:27:09.042Z,99654.00
2022-11-24T06:30:12.748Z,99655.91
2022-11-24T06:33:15.390Z,99668.16
2022-11-24T06:36:18.372Z,99666.34
2022-11-24T06:39:20.881Z,99675.84
2022-11-24T06:42:23.819Z,99678.94
2022-11-24T06:45:26.564Z,99688.28
2022-11-24T06:48:30.191Z,99680.84
2022-11-24T06:51:32.750Z,99688.06
2022-11-24T06:54:35.949Z,99690.47
2022-11-24T06:57:38.883Z,99698.69
2022-11-24T07:00:42.112Z,99708.53
2022-11-24T07:03:45.568Z,99710.03
2022-11-24T07:06:48.469Z,99709.31
2022-11-24T07:09:51.066Z,99728.31
2022-11-24T07:12:53.988Z,99731.53
2022-11-24T07:15:56.637Z,99728.31
2022-11-24T07:19:00.021Z,99743.19
2022-11-24T07:22:02.880Z,99747.41
2022-11-24T07:25:07.637Z,99747.50
2022-11-24T07:28:10.208Z,99749.13
2022-11-24T07:31:15.859Z,99743.84
2022-11-24T07:34:18.523Z,99746.25
2022-11-24T07:37:22.842Z,99740.75
2022-11-24T07:40:27.494Z,99752.31
2022-11-24T07:43:36.297Z,99749.06
2022-11-24T07:46:39.297Z,99748.63
2022-11-24T07:49:42.206Z,99755.94
2022-11-24T07:52:44.735Z,99749.37
2022-11-24T07:56:00.470Z,99758.88
2022-11-24T07:59:03.750Z,99753.38
2022-11-24T08:02:06.780Z,99760.03
2022-11-24T08:05:09.695Z,99759.34
2022-11-24T08:08:12.343Z,99764.94
2022-11-24T08:11:17.908Z,99758.75
2022-11-24T08:14:20.643Z,99771.09
2022-11-24T08:17:23.591Z,99772.34
2022-11-24T08:20:26.234Z,99769.09
2022-11-24T08:23:30.139Z,99772.91
2022-11-24T08:26:32.706Z,99775.66
2022-11-24T08:29:35.546Z,99783.34
2022-11-24T08:32:38.179Z,99786.19
2022-11-24T08:35:41.027Z,99785.84
2022-11-24T08:38:44.881Z,99790.91
2022-11-24T08:41:48.003Z,99781.00
2022-11-24T08:44:58.539Z,99790.75
2022-11-24T08:48:01.811Z,99790.19
2022-11-24T08:51:13.108Z,99789.03
2022-11-24T08:54:18.774Z,99795.06
2022-11-24T08:57:22.012Z,99798.28
2022-11-24T09:00:25.297Z,99801.47
2022-11-24T09:03:27.885Z,99801.31
2022-11-24T09:06:32.050Z,99790.59
2022-11-24T09:09:34.660Z,99794.44
2022-11-24T09:12:37.537Z,99785.91
2022-11-24T09:15:40.032Z,99788.28
2022-11-24T09:18:43.400Z,99791.59
2022-11-24T09:21:46.003Z,99783.09
2022-11-24T09:24:48.966Z,99796.34
2022-11-24T09:27:51.730Z,99792.69
2022-11-24T09:30:54.720Z,99791.44
2022-11-24T09:33:57.933Z,99793.69
2022-11-24T09:37:01.637Z,99788.28
2022-11-24T09:40:04.714Z,99785.25
2022-11-24T09:43:20.239Z,99785.09
2022-11-24T09:46:36.207Z,99785.63
2022-11-24T09:50:14.998Z,99785.97
2022-11-24T09:53:26.755Z,99786.56
2022-11-24T09:56:34.615Z,99779.84
2022-11-24T09:59:37.925Z,99776.06
2022-11-24T10:02:40.973Z,99780.53
2022-11-24T10:05:45.498Z,99784.47
2022-11-24T10:09:06.780Z,99773.44
2022-11-24T10:12:35.716Z,99776.31
2022-11-24T10:15:49.102Z,99769.91
2022-11-24T10:19:05.036Z,99775.78
2022-11-24T10:22:39.343Z,99785.34
2022-11-24T10:25:51.144Z,99779.03
2022-11-24T10:28:56.069Z,99784.28
2022-11-24T10:31:59.251Z,99788.22
2022-11-24T10:35:18.163Z,99796.91
2022-11-24T10:38:32.290Z,99785.72
2022-11-24T10:42:05.863Z,99796.91
2022-11-24T10:45:15.214Z,99799.31
2022-11-24T10:48:24.463Z,99798.34
2022-11-24T10:52:02.259Z,99794.94
2022-11-24T10:55:06.313Z,99804.50
2022-11-24T10:58:17.202Z,99799.38
2022-11-24T11:01:28.835Z,99799.28
2022-11-24T11:04:34.914Z,99811.81
2022-11-24T11:07:37.544Z,99812.25
2022-11-24T11:10:41.871Z,99804.13
2022-11-24T11:14:03.082Z,99806.28
2022-11-24T11:17:45.411Z,99814.50
2022-11-24T11:20:54.537Z,99819.25
2022-11-24T11:23:58.308Z,99814.03
2022-11-24T11:27:03.357Z,99815.63
2022-11-24T11:34:09.548Z,99817.03
2022-11-24T11:37:18.362Z,99812.84
2022-11-24T11:43:36.172Z,99815.50
2022-11-24T11:46:38.716Z,99810.50
2022-11-24T11:49:41.714Z,99813.88
2022-11-24T11:53:02.596Z,99810.19
2022-11-24T11:56:26.741Z,99818.94
2022-11-24T12:00:10.244Z,99816.38
2022-11-24T12:03:36.289Z,99820.88
2022-11-24T12:06:48.193Z,99805.28
2022-11-24T12:09:57.652Z,99811.69
2022-11-24T12:13:26.723Z,99810.25
2022-11-24T12:16:32.611Z,99818.44
2022-11-24T12:19:49.146Z,99820.97
2022-11-24T12:23:36.635Z,99819.13
2022-11-24T12:26:46.607Z,99817.81
2022-11-24T12:30:25.706Z,99823.88
2022-11-24T12:33:52.309Z,99832.66
2022-11-24T12:37:27.992Z,99832.06
2022-11-24T12:40:35.970Z,99829.12
2022-11-24T12:43:42.105Z,99817.22
2022-11-24T12:47:03.111Z,99826.97
2022-11-24T12:50:17.831Z,99832.41
2022-11-24T12:53:25.844Z,99835.28
2022-11-24T12:56:58.082Z,99837.31
2022-11-24T13:00:14.636Z,99833.13
2022-11-24T13:03:53.105Z,99835.97
2022-11-24T13:07:26.240Z,99836.19
2022-11-24T13:10:57.328Z,99831.97
2022-11-24T13:14:12.203Z,99843.97
2022-11-24T13:17:50.269Z,99848.41
2022-11-24T13:20:57.236Z,99842.72
2022-11-24T13:24:04.771Z,99849.81
2022-11-24T13:27:13.575Z,99853.97
2022-11-24T13:30:35.128Z,99842.50
2022-11-24T13:33:39.164Z,99853.78
2022-11-24T13:36:53.829Z,99853.47
2022-11-24T13:39:58.732Z,99855.87
2022-11-24T13:43:02.837Z,99860.41
2022-11-24T13:46:09.966Z,99865.63
2022-11-24T13:49:14.769Z,99861.41
2022-11-24T13:52:36.228Z,99864.66
2022-11-24T13:55:42.051Z,99871.00
2022-11-24T13:58:50.654Z,99866.31
2022-11-24T14:01:57.915Z,99875.25
2022-11-24T14:05:01.063Z,99873.38
2022-11-24T14:08:06.511Z,99869.13
2022-11-24T14:11:19.257Z,99881.91
2022-11-24T14:14:22.519Z,99878.28
2022-11-24T14:17:28.624Z,99890.62
2022-11-24T14:20:31.660Z,99884.47
2022-11-24T14:23:34.629Z,99890.25
2022-11-24T14:26:41.828Z,99898.88
2022-11-24T14:29:59.499Z,99901.16
2022-11-24T14:33:04.105Z,99910.16
2022-11-24T14:36:15.531Z,99908.53
2022-11-24T14:39:20.429Z,99914.75
2022-11-24T14:42:25.689Z,99913.84
2022-11-24T14:45:28.529Z,99914.09
2022-11-24T14:48:36.016Z,99914.34
2022-11-24T14:51:44.952Z,99918.63
2022-11-24T14:54:54.725Z,99925.19
2022-11-24T14:57:58.580Z,99930.03
2022-11-24T15:01:10.270Z,99922.06
2022-11-24T15:04:46.277Z,99924.97
2022-11-24T15:07:49.107Z,99924.19
2022-11-24T15:10:58.250Z,99928.00
2022-11-24T15:14:01.247Z,99947.47
2022-11-24T15:17:04.762Z,99946.91
2022-11-24T15:20:32.277Z,99946.69
2022-11-24T15:23:36.674Z,99947.50
2022-11-24T15:26:42.110Z,99953.66
2022-11-24T15:29:45.069Z,99964.78
2022-11-24T15:32:58.542Z,99953.22
2022-11-24T15:36:01.449Z,99961.78
2022-11-24T15:39:04.563Z,99964.75
2022-11-24T15:42:11.866Z,99962.91
2022-11-24T15:45:14.887Z,99978.59
2022-11-24T15:48:18.275Z,99978.03
2022-11-24T15:51:24.166Z,99979.44
2022-11-24T15:54:27.847Z,99979.06
2022-11-24T15:57:34.566Z,99988.09
2022-11-24T16:00:38.018Z,99988.41
2022-11-24T16:03:49.080Z,99997.22
2022-11-24T16:06:52.195Z,100000.66
2022-11-24T16:09:55.105Z,100000.69
2022-11-24T16:12:57.916Z,100001.12
2022-11-24T16:16:01.304Z,99999.09
2022-11-24T16:19:04.182Z,100007.56
2022-11-24T16:22:09.098Z,99999.75
2022-11-24T16:25:12.729Z,100001.12
2022-11-24T16:28:17.327Z,99998.81
2022-11-24T16:31:20.306Z,100005.00
2022-11-24T16:34:23.388Z,100016.31
2022-11-24T16:37:26.358Z,100020.72
2022-11-24T16:40:29.750Z,100025.44
2022-11-24T16:43:32.506Z,100032.16
2022-11-24T16:46:35.517Z,100033.84
2022-11-24T16:49:38.664Z,100046.31
2022-11-24T16:52:41.993Z,100046.19
2022-11-24T16:55:45.099Z,100039.16
2022-11-24T16:58:48.556Z,100042.28
2022-11-24T17:01:51.290Z,100049.63
2022-11-24T17:04:54.291Z,100046.44
2022-11-24T17:07:57.404Z,100052.09
2022-11-24T17:11:21.668Z,100056.66
2022-11-24T17:14:26.032Z,100061.25
2022-11-24T17:17:29.148Z,100068.97
2022-11-24T17:20:31.887Z,100068.41
2022-11-24T17:23:37.173Z,100069.09
2022-11-24T17:26:42.498Z,100077.28
2022-11-24T17:29:49.405Z,100087.16
2022-11-24T17:32:56.592Z,100090.09
2022-11-24T17:36:05.123Z,100089.66
2022-11-24T17:39:08.242Z,100088.56
2022-11-24T17:42:11.501Z,100089.28
2022-11-24T17:45:14.553Z,100100.78
2022-11-24T17:48:17.539Z,100094.87
2022-11-24T17:51:22.706Z,100103.31
2022-11-24T17:57:49.051Z,100111.44
2022-11-24T18:00:52.451Z,100111.66
2022-11-24T18:03:55.478Z,100122.81
2022-11-24T18:07:01.026Z,100124.28
2022-11-24T18:10:04.873Z,100123.34
2022-11-24T18:13:18.207Z,100125.00
2022-11-24T18:16:35.218Z,100132.06
2022-11-24T18:19:43.049Z,100135.50
2022-11-24T18:26:12.228Z,100143.25
2022-11-24T18:29:15.627Z,100144.03
2022-11-24T18:32:18.761Z,100151.78
2022-11-24T18:35:22.258Z,100145.69
2022-11-24T18:38:25.978Z,100152.25
2022-11-24T18:41:29.359Z,100145.00
2022-11-24T18:44:32.693Z,100149.69
2022-11-24T18:47:36.862Z,100163.03
2022-11-24T18:50:39.916Z,100163.03
2022-11-24T18:53:45.566Z,100159.34
2022-11-24T18:56:48.597Z,100159.66
2022-11-24T18:59:52.423Z,100159.03
2022-11-24T19:02:55.695Z,100157.03
2022-11-24T19:06:04.629Z,100170.47
2022-11-24T19:09:20.547Z,100169.16
2022-11-24T19:12:24.998Z,100169.19
2022-11-24T19:15:28.147Z,100174.66
2022-11-24T19:18:32.004Z,100181.91
2022-11-24T19:21:38.179Z,100186.41
2022-11-24T19:24:42.789Z,100192.53
2022-11-24T19:27:45.971Z,100196.25
2022-11-24T19:30:49.415Z,100197.50
2022-11-24T19:33:54.731Z,100191.69
2022-11-24T19:36:58.448Z,100198.44
2022-11-24T19:40:02.964Z,100201.06
2022-11-24T19:43:06.843Z,100207.31
2022-11-24T19:46:13.024Z,100213.47
2022-11-24T19:49:17.123Z,100214.75
2022-11-24T19:52:20.039Z,100209.94
2022-11-24T19:55:22.994Z,100224.25
2022-11-24T20:05:01.502Z,100240.03
2022-11-24T20:08:05.904Z,100234.22
2022-11-24T20:11:13.350Z,100232.28
2022-11-24T20:14:20.941Z,100237.22
2022-11-24T20:17:30.226Z,100240.72
2022-11-24T20:20:33.094Z,100247.37
2022-11-24T20:23:37.216Z,100254.94
2022-11-24T20:26:45.278Z,100253.50
2022-11-24T20:29:48.378Z,100249.47
2022-11-24T20:32:51.235Z,100256.09
2022-11-24T20:35:54.901Z,100249.84
2022-11-24T20:39:01.036Z,100267.25
2022-11-24T20:42:04.535Z,100259.22
2022-11-24T20:45:08.194Z,100267.09
2022-11-24T20:48:15.705Z,100270.34
2022-11-24T20:51:25.961Z,100271.47
2022-11-24T20:54:29.603Z,100263.19
2022-11-24T20:57:32.901Z,100257.56
2022-11-24T21:00:36.387Z,100278.00
2022-11-24T21:03:43.266Z,100270.16
2022-11-24T21:06:47.573Z,100268.84
2022-11-24T21:09:50.237Z,100279.97
2022-11-24T21:12:54.659Z,100274.69
2022-11-24T21:15:57.448Z,100275.13
2022-11-24T21:19:04.694Z,100271.09
2022-11-24T21:22:08.797Z,100282.03
2022-11-24T21:25:12.304Z,100286.53
2022-11-24T21:28:16.375Z,100299.31
2022-11-24T21:31:21.895Z,100294.56
2022-11-24T21:34:24.592Z,100296.66
2022-11-24T21:37:27.397Z,100301.19
2022-11-24T21:40:30.584Z,100301.84
2022-11-24T21:43:36.303Z,100299.13
2022-11-24T21:46:44.940Z,100301.22
2022-11-24T21:49:48.896Z,100299.91
2022-11-24T21:52:51.816Z,100306.53
2022-11-24T21:55:56.303Z,100299.97
2022-11-24T21:58:59.018Z,100297.91
2022-11-24T22:02:02.017Z,100305.50
2022-11-24T22:05:05.129Z,100313.22
2022-11-24T22:08:07.783Z,100315.78
2022-11-24T22:11:19.784Z,100322.25
2022-11-24T22:14:22.428Z,100328.22
2022-11-24T22:17:25.383Z,100326.59
2022-11-24T22:20:27.986Z,100332.41
2022-11-24T22:23:32.444Z,100337.09
2022-11-24T22:26:36.031Z,100339.66
2022-11-24T22:29:38.909Z,100338.19
2022-11-24T22:32:41.606Z,100347.94
2022-11-24T22:35:44.458Z,100350.16
2022-11-24T22:38:47.711Z,100353.69
2022-11-24T22:41:50.929Z,100352.59
2022-11-24T22:44:53.553Z,100361.91
2022-11-24T22:47:56.664Z,100361.81
2022-11-24T22:51:20.066Z,100355.97
2022-11-24T22:54:22.981Z,100357.06
2022-11-24T22:57:25.715Z,100358.44
2022-11-24T23:00:28.559Z,100377.03
2022-11-24T23:03:32.512Z,100365.28
2022-11-24T23:06:35.474Z,100374.34
2022-11-24T23:09:38.146Z,100369.31
2022-11-24T23:12:41.342Z,100370.13
2022-11-24T23:15:44.018Z,100376.66
2022-11-24T23:18:53.796Z,100379.84
2022-11-24T23:21:56.756Z,100383.72
2022-11-24T23:24:59.682Z,100380.69
2022-11-24T23:28:02.370Z,100381.03
2022-11-24T23:31:11.466Z,100379.47
2022-11-24T23:34:14.103Z,100367.84
2022-11-24T23:37:17.037Z,100384.38
2022-11-24T23:40:19.702Z,100389.37
2022-11-24T23:43:22.690Z,100383.09
2022-11-24T23:46:26.960Z,100388.09
2022-11-24T23:49:30.234Z,100391.97
2022-11-24T23:52:32.885Z,100391.38
2022-11-24T23:55:36.596Z,100380.28
2022-11-24T23:58:39.209Z,100386.41
